sensor_id;sensor_type;location;lat;lon;timestamp;P1;durP1;ratioP1;P2;durP2;ratioP2
77384;SDS011;66443;49.122;8.346;2024-01-11T00:01:34;36.47;;;17.00;;
77384;SDS011;66443;49.122;8.346;2024-01-11T00:04:00;25.60;;;11.47;;
77384;SDS011;66443;49.122;8.346;2024-01-11T00:06:25;40.50;;;17.10;;
77384;SDS011;66443;49.122;8.346;2024-01-11T00:08:50;43.30;;;18.53;;
77384;SDS011;66443;49.122;8.346;2024-01-11T00:11:15;38.87;;;18.33;;
77384;SDS011;66443;49.122;8.346;2024-01-11T00:13:40;41.10;;;16.93;;
77384;SDS011;66443;49.122;8.346;2024-01-11T00:16:05;44.50;;;17.43;;
77384;SDS011;66443;49.122;8.346;2024-01-11T00:18:31;39.87;;;17.60;;
77384;SDS011;66443;49.122;8.346;2024-01-11T00:20:56;35.87;;;16.93;;
77384;SDS011;66443;49.122;8.346;2024-01-11T00:23:21;42.60;;;18.80;;
77384;SDS011;66443;49.122;8.346;2024-01-11T00:25:46;37.73;;;17.93;;
77384;SDS011;66443;49.122;8.346;2024-01-11T00:28:11;33.63;;;16.43;;
77384;SDS011;66443;49.122;8.346;2024-01-11T00:30:37;47.27;;;18.13;;
77384;SDS011;66443;49.122;8.346;2024-01-11T00:33:02;38.27;;;18.80;;
77384;SDS011;66443;49.122;8.346;2024-01-11T00:35:27;36.47;;;17.53;;
77384;SDS011;66443;49.122;8.346;2024-01-11T00:37:53;39.80;;;17.73;;
77384;SDS011;66443;49.122;8.346;2024-01-11T00:40:18;40.40;;;18.87;;
77384;SDS011;66443;49.122;8.346;2024-01-11T00:42:43;36.07;;;16.33;;
77384;SDS011;66443;49.122;8.346;2024-01-11T00:45:08;36.73;;;17.37;;
77384;SDS011;66443;49.122;8.346;2024-01-11T00:47:34;41.40;;;15.30;;
77384;SDS011;66443;49.122;8.346;2024-01-11T00:49:59;44.20;;;20.10;;
77384;SDS011;66443;49.122;8.346;2024-01-11T00:52:24;38.50;;;16.20;;
77384;SDS011;66443;49.122;8.346;2024-01-11T00:54:49;34.93;;;17.30;;
77384;SDS011;66443;49.122;8.346;2024-01-11T00:57:14;40.57;;;18.30;;
77384;SDS011;66443;49.122;8.346;2024-01-11T00:59:40;36.17;;;18.50;;
77384;SDS011;66443;49.122;8.346;2024-01-11T01:02:05;43.43;;;18.33;;
77384;SDS011;66443;49.122;8.346;2024-01-11T01:04:30;40.03;;;18.60;;
77384;SDS011;66443;49.122;8.346;2024-01-11T01:06:55;46.23;;;18.30;;
77384;SDS011;66443;49.122;8.346;2024-01-11T01:09:21;45.57;;;17.47;;
77384;SDS011;66443;49.122;8.346;2024-01-11T01:11:46;36.87;;;18.00;;
77384;SDS011;66443;49.122;8.346;2024-01-11T01:14:11;41.80;;;17.93;;
77384;SDS011;66443;49.122;8.346;2024-01-11T01:16:36;50.72;;;18.98;;
77384;SDS011;66443;49.122;8.346;2024-01-11T01:19:01;41.23;;;16.80;;
77384;SDS011;66443;49.122;8.346;2024-01-11T01:21:27;38.57;;;18.13;;
77384;SDS011;66443;49.122;8.346;2024-01-11T01:23:53;51.17;;;18.93;;
77384;SDS011;66443;49.122;8.346;2024-01-11T01:26:18;50.23;;;19.73;;
77384;SDS011;66443;49.122;8.346;2024-01-11T01:28:43;46.53;;;19.20;;
77384;SDS011;66443;49.122;8.346;2024-01-11T01:31:09;49.10;;;20.40;;
77384;SDS011;66443;49.122;8.346;2024-01-11T01:33:34;59.17;;;21.90;;
77384;SDS011;66443;49.122;8.346;2024-01-11T01:35:59;40.80;;;18.83;;
77384;SDS011;66443;49.122;8.346;2024-01-11T01:38:25;48.50;;;18.10;;
77384;SDS011;66443;49.122;8.346;2024-01-11T01:40:50;53.17;;;19.93;;
77384;SDS011;66443;49.122;8.346;2024-01-11T01:43:15;44.13;;;19.13;;
77384;SDS011;66443;49.122;8.346;2024-01-11T01:45:40;40.57;;;18.07;;
77384;SDS011;66443;49.122;8.346;2024-01-11T01:48:05;42.63;;;16.33;;
77384;SDS011;66443;49.122;8.346;2024-01-11T01:50:31;41.43;;;18.53;;
77384;SDS011;66443;49.122;8.346;2024-01-11T01:52:56;38.23;;;18.63;;
77384;SDS011;66443;49.122;8.346;2024-01-11T01:55:22;38.77;;;18.23;;
77384;SDS011;66443;49.122;8.346;2024-01-11T01:57:48;57.47;;;20.30;;
77384;SDS011;66443;49.122;8.346;2024-01-11T02:00:15;50.13;;;19.70;;
77384;SDS011;66443;49.122;8.346;2024-01-11T02:02:40;55.27;;;21.63;;
77384;SDS011;66443;49.122;8.346;2024-01-11T02:05:08;45.27;;;20.30;;
77384;SDS011;66443;49.122;8.346;2024-01-11T02:07:33;48.50;;;19.97;;
77384;SDS011;66443;49.122;8.346;2024-01-11T02:09:58;51.97;;;19.60;;
77384;SDS011;66443;49.122;8.346;2024-01-11T02:12:23;48.20;;;18.47;;
77384;SDS011;66443;49.122;8.346;2024-01-11T02:14:49;49.90;;;19.53;;
77384;SDS011;66443;49.122;8.346;2024-01-11T02:17:14;45.33;;;19.97;;
77384;SDS011;66443;49.122;8.346;2024-01-11T02:19:39;42.47;;;18.57;;
77384;SDS011;66443;49.122;8.346;2024-01-11T02:22:08;42.73;;;18.73;;
77384;SDS011;66443;49.122;8.346;2024-01-11T02:24:35;48.17;;;21.43;;
77384;SDS011;66443;49.122;8.346;2024-01-11T02:27:01;40.57;;;18.73;;
77384;SDS011;66443;49.122;8.346;2024-01-11T02:29:27;42.87;;;18.67;;
77384;SDS011;66443;49.122;8.346;2024-01-11T02:31:53;41.50;;;18.67;;
77384;SDS011;66443;49.122;8.346;2024-01-11T02:34:19;41.33;;;19.77;;
77384;SDS011;66443;49.122;8.346;2024-01-11T02:36:44;48.77;;;19.00;;
77384;SDS011;66443;49.122;8.346;2024-01-11T02:39:10;42.47;;;17.63;;
77384;SDS011;66443;49.122;8.346;2024-01-11T02:41:36;35.77;;;16.83;;
77384;SDS011;66443;49.122;8.346;2024-01-11T02:44:02;38.90;;;17.50;;
77384;SDS011;66443;49.122;8.346;2024-01-11T02:46:27;50.00;;;20.00;;
77384;SDS011;66443;49.122;8.346;2024-01-11T02:48:52;40.90;;;18.40;;
77384;SDS011;66443;49.122;8.346;2024-01-11T02:51:17;41.67;;;18.33;;
77384;SDS011;66443;49.122;8.346;2024-01-11T02:53:42;42.37;;;17.63;;
77384;SDS011;66443;49.122;8.346;2024-01-11T02:56:08;43.57;;;19.63;;
77384;SDS011;66443;49.122;8.346;2024-01-11T02:58:33;38.17;;;18.43;;
77384;SDS011;66443;49.122;8.346;2024-01-11T03:00:58;50.40;;;19.50;;
77384;SDS011;66443;49.122;8.346;2024-01-11T03:03:23;48.90;;;19.67;;
77384;SDS011;66443;49.122;8.346;2024-01-11T03:05:48;52.43;;;19.03;;
77384;SDS011;66443;49.122;8.346;2024-01-11T03:08:13;52.80;;;19.20;;
77384;SDS011;66443;49.122;8.346;2024-01-11T03:10:39;45.03;;;18.03;;
77384;SDS011;66443;49.122;8.346;2024-01-11T03:13:05;43.07;;;18.80;;
77384;SDS011;66443;49.122;8.346;2024-01-11T03:15:30;46.90;;;20.30;;
77384;SDS011;66443;49.122;8.346;2024-01-11T03:17:55;36.47;;;17.83;;
77384;SDS011;66443;49.122;8.346;2024-01-11T03:20:20;40.03;;;16.90;;
77384;SDS011;66443;49.122;8.346;2024-01-11T03:22:49;39.87;;;19.57;;
77384;SDS011;66443;49.122;8.346;2024-01-11T03:25:14;36.80;;;17.93;;
77384;SDS011;66443;49.122;8.346;2024-01-11T03:27:40;45.47;;;18.77;;
77384;SDS011;66443;49.122;8.346;2024-01-11T03:30:05;53.03;;;21.20;;
77384;SDS011;66443;49.122;8.346;2024-01-11T03:32:30;39.63;;;19.57;;
77384;SDS011;66443;49.122;8.346;2024-01-11T03:34:55;52.57;;;20.20;;
77384;SDS011;66443;49.122;8.346;2024-01-11T03:37:21;48.70;;;20.40;;
77384;SDS011;66443;49.122;8.346;2024-01-11T03:39:46;45.57;;;20.00;;
77384;SDS011;66443;49.122;8.346;2024-01-11T03:42:11;42.67;;;18.30;;
77384;SDS011;66443;49.122;8.346;2024-01-11T03:44:36;46.63;;;18.77;;
77384;SDS011;66443;49.122;8.346;2024-01-11T03:47:02;47.70;;;19.10;;
77384;SDS011;66443;49.122;8.346;2024-01-11T03:49:27;45.97;;;20.63;;
77384;SDS011;66443;49.122;8.346;2024-01-11T03:51:52;48.10;;;17.97;;
77384;SDS011;66443;49.122;8.346;2024-01-11T03:54:17;44.17;;;21.27;;
77384;SDS011;66443;49.122;8.346;2024-01-11T03:56:43;62.83;;;21.33;;
77384;SDS011;66443;49.122;8.346;2024-01-11T03:59:08;45.23;;;20.23;;
77384;SDS011;66443;49.122;8.346;2024-01-11T04:01:33;52.80;;;19.93;;
77384;SDS011;66443;49.122;8.346;2024-01-11T04:03:58;58.43;;;22.87;;
77384;SDS011;66443;49.122;8.346;2024-01-11T04:06:23;49.80;;;19.67;;
77384;SDS011;66443;49.122;8.346;2024-01-11T04:08:49;49.20;;;21.53;;
77384;SDS011;66443;49.122;8.346;2024-01-11T04:11:15;49.37;;;20.93;;
77384;SDS011;66443;49.122;8.346;2024-01-11T04:13:40;47.87;;;20.73;;
77384;SDS011;66443;49.122;8.346;2024-01-11T04:16:05;48.83;;;20.97;;
77384;SDS011;66443;49.122;8.346;2024-01-11T04:18:31;51.30;;;20.70;;
77384;SDS011;66443;49.122;8.346;2024-01-11T04:20:57;49.97;;;21.10;;
77384;SDS011;66443;49.122;8.346;2024-01-11T04:23:22;51.13;;;21.23;;
77384;SDS011;66443;49.122;8.346;2024-01-11T04:25:47;59.93;;;21.37;;
77384;SDS011;66443;49.122;8.346;2024-01-11T04:28:12;55.90;;;22.93;;
77384;SDS011;66443;49.122;8.346;2024-01-11T04:30:37;43.47;;;20.23;;
77384;SDS011;66443;49.122;8.346;2024-01-11T04:33:03;50.20;;;20.67;;
77384;SDS011;66443;49.122;8.346;2024-01-11T04:35:28;44.47;;;19.43;;
77384;SDS011;66443;49.122;8.346;2024-01-11T04:37:53;45.57;;;20.33;;
77384;SDS011;66443;49.122;8.346;2024-01-11T04:40:18;47.77;;;20.00;;
77384;SDS011;66443;49.122;8.346;2024-01-11T04:42:43;48.73;;;20.93;;
77384;SDS011;66443;49.122;8.346;2024-01-11T04:45:09;54.37;;;21.67;;
77384;SDS011;66443;49.122;8.346;2024-01-11T04:47:34;55.17;;;21.50;;
77384;SDS011;66443;49.122;8.346;2024-01-11T04:49:59;58.20;;;20.70;;
77384;SDS011;66443;49.122;8.346;2024-01-11T04:52:24;53.23;;;20.40;;
77384;SDS011;66443;49.122;8.346;2024-01-11T04:54:49;49.97;;;19.50;;
77384;SDS011;66443;49.122;8.346;2024-01-11T04:57:14;51.77;;;21.27;;
77384;SDS011;66443;49.122;8.346;2024-01-11T04:59:40;53.23;;;20.43;;
77384;SDS011;66443;49.122;8.346;2024-01-11T05:02:05;52.47;;;19.13;;
77384;SDS011;66443;49.122;8.346;2024-01-11T05:04:30;55.67;;;21.90;;
77384;SDS011;66443;49.122;8.346;2024-01-11T05:06:55;48.47;;;21.10;;
77384;SDS011;66443;49.122;8.346;2024-01-11T05:09:20;62.53;;;23.63;;
77384;SDS011;66443;49.122;8.346;2024-01-11T05:11:45;50.10;;;19.63;;
77384;SDS011;66443;49.122;8.346;2024-01-11T05:14:11;56.58;;;21.00;;
77384;SDS011;66443;49.122;8.346;2024-01-11T05:16:36;53.27;;;20.30;;
77384;SDS011;66443;49.122;8.346;2024-01-11T05:19:01;42.40;;;19.63;;
77384;SDS011;66443;49.122;8.346;2024-01-11T05:21:26;47.53;;;19.60;;
77384;SDS011;66443;49.122;8.346;2024-01-11T05:23:51;51.97;;;21.73;;
77384;SDS011;66443;49.122;8.346;2024-01-11T05:26:17;46.87;;;19.97;;
77384;SDS011;66443;49.122;8.346;2024-01-11T05:28:43;57.33;;;20.77;;
77384;SDS011;66443;49.122;8.346;2024-01-11T05:31:12;50.10;;;21.83;;
77384;SDS011;66443;49.122;8.346;2024-01-11T05:33:38;50.33;;;20.30;;
77384;SDS011;66443;49.122;8.346;2024-01-11T05:36:03;55.53;;;21.73;;
77384;SDS011;66443;49.122;8.346;2024-01-11T05:38:28;42.10;;;19.83;;
77384;SDS011;66443;49.122;8.346;2024-01-11T05:40:54;56.97;;;21.00;;
77384;SDS011;66443;49.122;8.346;2024-01-11T05:43:19;45.70;;;20.83;;
77384;SDS011;66443;49.122;8.346;2024-01-11T05:45:44;52.90;;;22.33;;
77384;SDS011;66443;49.122;8.346;2024-01-11T05:48:10;62.83;;;22.00;;
77384;SDS011;66443;49.122;8.346;2024-01-11T05:50:35;61.17;;;22.97;;
77384;SDS011;66443;49.122;8.346;2024-01-11T05:53:00;57.30;;;24.77;;
77384;SDS011;66443;49.122;8.346;2024-01-11T05:55:26;51.87;;;21.50;;
77384;SDS011;66443;49.122;8.346;2024-01-11T05:57:51;57.73;;;21.10;;
77384;SDS011;66443;49.122;8.346;2024-01-11T06:00:16;47.23;;;18.00;;
77384;SDS011;66443;49.122;8.346;2024-01-11T06:02:41;55.13;;;19.23;;
77384;SDS011;66443;49.122;8.346;2024-01-11T06:05:09;54.03;;;21.87;;
77384;SDS011;66443;49.122;8.346;2024-01-11T06:07:35;51.43;;;21.50;;
77384;SDS011;66443;49.122;8.346;2024-01-11T06:10:00;61.17;;;22.20;;
77384;SDS011;66443;49.122;8.346;2024-01-11T06:12:28;50.80;;;20.80;;
77384;SDS011;66443;49.122;8.346;2024-01-11T06:14:53;52.77;;;20.63;;
77384;SDS011;66443;49.122;8.346;2024-01-11T06:17:18;52.77;;;20.67;;
77384;SDS011;66443;49.122;8.346;2024-01-11T06:19:43;44.07;;;19.77;;
77384;SDS011;66443;49.122;8.346;2024-01-11T06:22:09;55.90;;;21.27;;
77384;SDS011;66443;49.122;8.346;2024-01-11T06:24:34;43.80;;;17.10;;
77384;SDS011;66443;49.122;8.346;2024-01-11T06:26:59;65.57;;;23.40;;
77384;SDS011;66443;49.122;8.346;2024-01-11T06:29:24;52.93;;;21.00;;
77384;SDS011;66443;49.122;8.346;2024-01-11T06:31:49;59.77;;;24.37;;
77384;SDS011;66443;49.122;8.346;2024-01-11T06:34:14;42.80;;;19.20;;
77384;SDS011;66443;49.122;8.346;2024-01-11T06:36:40;58.83;;;22.97;;
77384;SDS011;66443;49.122;8.346;2024-01-11T06:39:05;48.77;;;21.47;;
77384;SDS011;66443;49.122;8.346;2024-01-11T06:41:30;51.27;;;20.23;;
77384;SDS011;66443;49.122;8.346;2024-01-11T06:43:55;50.03;;;21.73;;
77384;SDS011;66443;49.122;8.346;2024-01-11T06:46:20;54.40;;;20.63;;
77384;SDS011;66443;49.122;8.346;2024-01-11T06:48:48;51.40;;;21.63;;
77384;SDS011;66443;49.122;8.346;2024-01-11T06:51:14;53.80;;;22.10;;
77384;SDS011;66443;49.122;8.346;2024-01-11T06:53:40;59.97;;;23.30;;
77384;SDS011;66443;49.122;8.346;2024-01-11T06:56:13;62.37;;;23.13;;
77384;SDS011;66443;49.122;8.346;2024-01-11T06:58:38;63.60;;;21.87;;
77384;SDS011;66443;49.122;8.346;2024-01-11T07:01:04;57.83;;;23.57;;
77384;SDS011;66443;49.122;8.346;2024-01-11T07:03:30;55.87;;;21.30;;
77384;SDS011;66443;49.122;8.346;2024-01-11T07:05:55;55.60;;;22.50;;
77384;SDS011;66443;49.122;8.346;2024-01-11T07:08:20;53.53;;;21.03;;
77384;SDS011;66443;49.122;8.346;2024-01-11T07:10:45;43.83;;;18.50;;
77384;SDS011;66443;49.122;8.346;2024-01-11T07:13:10;43.50;;;20.10;;
77384;SDS011;66443;49.122;8.346;2024-01-11T07:15:37;42.30;;;16.53;;
77384;SDS011;66443;49.122;8.346;2024-01-11T07:18:02;52.30;;;20.80;;
77384;SDS011;66443;49.122;8.346;2024-01-11T07:20:27;44.03;;;17.93;;
77384;SDS011;66443;49.122;8.346;2024-01-11T07:22:52;59.77;;;21.70;;
77384;SDS011;66443;49.122;8.346;2024-01-11T07:25:18;31.47;;;13.90;;
77384;SDS011;66443;49.122;8.346;2024-01-11T07:27:43;36.43;;;17.27;;
77384;SDS011;66443;49.122;8.346;2024-01-11T07:30:10;27.20;;;15.00;;
77384;SDS011;66443;49.122;8.346;2024-01-11T07:32:36;44.50;;;19.83;;
77384;SDS011;66443;49.122;8.346;2024-01-11T07:35:02;50.77;;;20.73;;
77384;SDS011;66443;49.122;8.346;2024-01-11T07:37:27;65.53;;;23.13;;
77384;SDS011;66443;49.122;8.346;2024-01-11T07:39:53;51.60;;;21.20;;
77384;SDS011;66443;49.122;8.346;2024-01-11T07:42:18;41.10;;;16.40;;
77384;SDS011;66443;49.122;8.346;2024-01-11T07:44:44;64.57;;;22.37;;
77384;SDS011;66443;49.122;8.346;2024-01-11T07:47:09;54.93;;;22.30;;
77384;SDS011;66443;49.122;8.346;2024-01-11T07:49:34;52.03;;;21.10;;
77384;SDS011;66443;49.122;8.346;2024-01-11T07:51:59;49.67;;;18.67;;
77384;SDS011;66443;49.122;8.346;2024-01-11T07:54:24;51.27;;;22.13;;
77384;SDS011;66443;49.122;8.346;2024-01-11T07:56:50;50.73;;;20.70;;
77384;SDS011;66443;49.122;8.346;2024-01-11T07:59:15;69.53;;;24.57;;
77384;SDS011;66443;49.122;8.346;2024-01-11T08:01:40;63.13;;;22.57;;
77384;SDS011;66443;49.122;8.346;2024-01-11T08:04:05;53.50;;;22.03;;
77384;SDS011;66443;49.122;8.346;2024-01-11T08:06:31;58.50;;;22.67;;
77384;SDS011;66443;49.122;8.346;2024-01-11T08:08:57;65.73;;;23.40;;
77384;SDS011;66443;49.122;8.346;2024-01-11T08:11:22;49.10;;;18.93;;
77384;SDS011;66443;49.122;8.346;2024-01-11T08:13:47;56.00;;;22.33;;
77384;SDS011;66443;49.122;8.346;2024-01-11T08:16:16;60.90;;;24.67;;
77384;SDS011;66443;49.122;8.346;2024-01-11T08:18:41;64.20;;;23.67;;
77384;SDS011;66443;49.122;8.346;2024-01-11T08:21:06;70.63;;;25.93;;
77384;SDS011;66443;49.122;8.346;2024-01-11T08:23:34;62.23;;;23.17;;
77384;SDS011;66443;49.122;8.346;2024-01-11T08:25:59;50.73;;;21.67;;
77384;SDS011;66443;49.122;8.346;2024-01-11T08:28:24;57.03;;;21.77;;
77384;SDS011;66443;49.122;8.346;2024-01-11T08:30:50;58.23;;;21.90;;
77384;SDS011;66443;49.122;8.346;2024-01-11T08:33:15;57.50;;;23.10;;
77384;SDS011;66443;49.122;8.346;2024-01-11T08:35:40;50.90;;;21.33;;
77384;SDS011;66443;49.122;8.346;2024-01-11T08:38:06;60.60;;;23.77;;
77384;SDS011;66443;49.122;8.346;2024-01-11T08:40:31;55.30;;;22.27;;
77384;SDS011;66443;49.122;8.346;2024-01-11T08:42:56;38.17;;;17.70;;
77384;SDS011;66443;49.122;8.346;2024-01-11T08:45:23;52.10;;;22.50;;
77384;SDS011;66443;49.122;8.346;2024-01-11T08:47:48;61.20;;;23.03;;
77384;SDS011;66443;49.122;8.346;2024-01-11T08:50:14;52.00;;;24.03;;
77384;SDS011;66443;49.122;8.346;2024-01-11T08:52:39;52.23;;;22.77;;
77384;SDS011;66443;49.122;8.346;2024-01-11T08:55:05;54.73;;;19.37;;
77384;SDS011;66443;49.122;8.346;2024-01-11T08:57:30;56.17;;;21.40;;
77384;SDS011;66443;49.122;8.346;2024-01-11T08:59:55;60.17;;;21.97;;
77384;SDS011;66443;49.122;8.346;2024-01-11T09:02:21;58.87;;;23.37;;
77384;SDS011;66443;49.122;8.346;2024-01-11T09:04:46;59.47;;;23.60;;
77384;SDS011;66443;49.122;8.346;2024-01-11T09:07:12;53.33;;;23.17;;
77384;SDS011;66443;49.122;8.346;2024-01-11T09:09:37;56.30;;;21.80;;
77384;SDS011;66443;49.122;8.346;2024-01-11T09:12:03;58.90;;;25.73;;
77384;SDS011;66443;49.122;8.346;2024-01-11T09:14:28;55.93;;;23.47;;
77384;SDS011;66443;49.122;8.346;2024-01-11T09:16:53;52.43;;;22.70;;
77384;SDS011;66443;49.122;8.346;2024-01-11T09:19:19;63.57;;;25.53;;
77384;SDS011;66443;49.122;8.346;2024-01-11T09:21:45;60.37;;;24.87;;
77384;SDS011;66443;49.122;8.346;2024-01-11T09:24:10;56.25;;;24.05;;
77384;SDS011;66443;49.122;8.346;2024-01-11T09:26:35;64.13;;;23.98;;
77384;SDS011;66443;49.122;8.346;2024-01-11T09:29:01;51.17;;;20.47;;
77384;SDS011;66443;49.122;8.346;2024-01-11T09:31:26;46.93;;;22.20;;
77384;SDS011;66443;49.122;8.346;2024-01-11T09:33:52;64.77;;;25.33;;
77384;SDS011;66443;49.122;8.346;2024-01-11T09:36:17;52.97;;;24.60;;
77384;SDS011;66443;49.122;8.346;2024-01-11T09:38:43;54.40;;;21.93;;
77384;SDS011;66443;49.122;8.346;2024-01-11T09:41:08;64.67;;;25.67;;
77384;SDS011;66443;49.122;8.346;2024-01-11T09:43:34;60.47;;;24.87;;
77384;SDS011;66443;49.122;8.346;2024-01-11T09:46:00;59.93;;;26.40;;
77384;SDS011;66443;49.122;8.346;2024-01-11T09:48:27;49.63;;;23.53;;
77384;SDS011;66443;49.122;8.346;2024-01-11T09:50:53;46.90;;;22.47;;
77384;SDS011;66443;49.122;8.346;2024-01-11T09:53:19;53.63;;;23.40;;
77384;SDS011;66443;49.122;8.346;2024-01-11T09:55:46;53.53;;;24.13;;
77384;SDS011;66443;49.122;8.346;2024-01-11T09:58:11;53.13;;;24.00;;
77384;SDS011;66443;49.122;8.346;2024-01-11T10:00:36;57.00;;;22.50;;
77384;SDS011;66443;49.122;8.346;2024-01-11T10:03:02;48.00;;;23.57;;
77384;SDS011;66443;49.122;8.346;2024-01-11T10:05:27;55.63;;;22.83;;
77384;SDS011;66443;49.122;8.346;2024-01-11T10:07:54;55.37;;;23.20;;
77384;SDS011;66443;49.122;8.346;2024-01-11T10:10:19;56.60;;;24.17;;
77384;SDS011;66443;49.122;8.346;2024-01-11T10:12:44;49.47;;;22.63;;
77384;SDS011;66443;49.122;8.346;2024-01-11T10:15:10;54.03;;;22.43;;
77384;SDS011;66443;49.122;8.346;2024-01-11T10:17:44;61.47;;;26.47;;
77384;SDS011;66443;49.122;8.346;2024-01-11T10:20:11;53.10;;;23.50;;
77384;SDS011;66443;49.122;8.346;2024-01-11T10:22:38;57.07;;;22.93;;
77384;SDS011;66443;49.122;8.346;2024-01-11T10:27:41;47.83;;;21.63;;
77384;SDS011;66443;49.122;8.346;2024-01-11T10:30:07;56.03;;;23.90;;
77384;SDS011;66443;49.122;8.346;2024-01-11T10:32:32;55.07;;;23.67;;
77384;SDS011;66443;49.122;8.346;2024-01-11T10:34:59;55.60;;;22.53;;
77384;SDS011;66443;49.122;8.346;2024-01-11T10:37:26;40.10;;;19.07;;
77384;SDS011;66443;49.122;8.346;2024-01-11T10:39:51;51.83;;;22.07;;
77384;SDS011;66443;49.122;8.346;2024-01-11T10:42:17;39.57;;;21.00;;
77384;SDS011;66443;49.122;8.346;2024-01-11T10:44:47;49.47;;;20.37;;
77384;SDS011;66443;49.122;8.346;2024-01-11T10:47:13;47.23;;;22.10;;
77384;SDS011;66443;49.122;8.346;2024-01-11T10:49:39;54.17;;;23.33;;
77384;SDS011;66443;49.122;8.346;2024-01-11T10:52:05;45.07;;;21.70;;
77384;SDS011;66443;49.122;8.346;2024-01-11T10:54:33;51.40;;;21.73;;
77384;SDS011;66443;49.122;8.346;2024-01-11T10:56:59;49.17;;;23.33;;
77384;SDS011;66443;49.122;8.346;2024-01-11T10:59:25;49.40;;;20.67;;
77384;SDS011;66443;49.122;8.346;2024-01-11T11:01:54;56.00;;;22.77;;
77384;SDS011;66443;49.122;8.346;2024-01-11T11:04:21;46.80;;;21.60;;
77384;SDS011;66443;49.122;8.346;2024-01-11T11:06:48;51.83;;;23.60;;
77384;SDS011;66443;49.122;8.346;2024-01-11T11:09:14;41.20;;;19.67;;
77384;SDS011;66443;49.122;8.346;2024-01-11T11:11:39;45.50;;;21.10;;
77384;SDS011;66443;49.122;8.346;2024-01-11T11:14:05;48.47;;;23.80;;
77384;SDS011;66443;49.122;8.346;2024-01-11T11:16:32;52.27;;;21.60;;
77384;SDS011;66443;49.122;8.346;2024-01-11T11:18:57;60.50;;;23.83;;
77384;SDS011;66443;49.122;8.346;2024-01-11T11:21:22;51.67;;;24.33;;
77384;SDS011;66443;49.122;8.346;2024-01-11T11:23:49;48.50;;;22.63;;
77384;SDS011;66443;49.122;8.346;2024-01-11T11:26:15;49.70;;;21.87;;
77384;SDS011;66443;49.122;8.346;2024-01-11T11:28:44;54.63;;;22.20;;
77384;SDS011;66443;49.122;8.346;2024-01-11T11:31:10;51.97;;;22.17;;
77384;SDS011;66443;49.122;8.346;2024-01-11T11:33:35;50.20;;;22.00;;
77384;SDS011;66443;49.122;8.346;2024-01-11T11:36:01;49.13;;;23.20;;
77384;SDS011;66443;49.122;8.346;2024-01-11T11:38:28;48.27;;;22.23;;
77384;SDS011;66443;49.122;8.346;2024-01-11T11:40:54;47.17;;;20.00;;
77384;SDS011;66443;49.122;8.346;2024-01-11T11:43:20;61.33;;;24.53;;
77384;SDS011;66443;49.122;8.346;2024-01-11T11:45:46;43.80;;;20.40;;
77384;SDS011;66443;49.122;8.346;2024-01-11T11:53:38;44.27;;;22.23;;
77384;SDS011;66443;49.122;8.346;2024-01-11T11:56:04;44.30;;;19.67;;
77384;SDS011;66443;49.122;8.346;2024-01-11T11:58:29;42.33;;;21.57;;
77384;SDS011;66443;49.122;8.346;2024-01-11T12:00:55;43.03;;;21.47;;
77384;SDS011;66443;49.122;8.346;2024-01-11T12:03:23;46.03;;;22.10;;
77384;SDS011;66443;49.122;8.346;2024-01-11T12:05:51;45.50;;;21.53;;
77384;SDS011;66443;49.122;8.346;2024-01-11T12:08:16;36.93;;;21.47;;
77384;SDS011;66443;49.122;8.346;2024-01-11T12:10:41;44.57;;;22.10;;
77384;SDS011;66443;49.122;8.346;2024-01-11T12:13:07;41.93;;;21.83;;
77384;SDS011;66443;49.122;8.346;2024-01-11T12:15:32;40.30;;;23.10;;
77384;SDS011;66443;49.122;8.346;2024-01-11T12:17:58;39.57;;;21.07;;
77384;SDS011;66443;49.122;8.346;2024-01-11T12:20:23;39.77;;;20.90;;
77384;SDS011;66443;49.122;8.346;2024-01-11T12:22:48;44.47;;;20.87;;
77384;SDS011;66443;49.122;8.346;2024-01-11T12:25:14;41.00;;;20.63;;
77384;SDS011;66443;49.122;8.346;2024-01-11T12:27:39;39.00;;;20.93;;
77384;SDS011;66443;49.122;8.346;2024-01-11T12:30:05;42.97;;;22.10;;
77384;SDS011;66443;49.122;8.346;2024-01-11T12:32:30;35.93;;;21.33;;
77384;SDS011;66443;49.122;8.346;2024-01-11T12:34:56;42.30;;;22.70;;
77384;SDS011;66443;49.122;8.346;2024-01-11T12:37:21;44.00;;;22.73;;
77384;SDS011;66443;49.122;8.346;2024-01-11T12:39:47;48.17;;;22.87;;
77384;SDS011;66443;49.122;8.346;2024-01-11T12:42:12;41.70;;;21.87;;
77384;SDS011;66443;49.122;8.346;2024-01-11T12:44:37;39.47;;;22.50;;
77384;SDS011;66443;49.122;8.346;2024-01-11T12:47:04;46.53;;;24.37;;
77384;SDS011;66443;49.122;8.346;2024-01-11T12:49:30;52.20;;;23.93;;
77384;SDS011;66443;49.122;8.346;2024-01-11T12:51:55;43.63;;;22.07;;
77384;SDS011;66443;49.122;8.346;2024-01-11T12:54:20;39.30;;;22.50;;
77384;SDS011;66443;49.122;8.346;2024-01-11T12:56:46;38.43;;;22.63;;
77384;SDS011;66443;49.122;8.346;2024-01-11T12:59:11;35.63;;;20.43;;
77384;SDS011;66443;49.122;8.346;2024-01-11T13:01:37;33.10;;;21.20;;
77384;SDS011;66443;49.122;8.346;2024-01-11T13:04:03;42.03;;;23.90;;
77384;SDS011;66443;49.122;8.346;2024-01-11T13:06:31;43.77;;;23.87;;
77384;SDS011;66443;49.122;8.346;2024-01-11T13:08:57;49.20;;;27.20;;
77384;SDS011;66443;49.122;8.346;2024-01-11T13:11:22;34.43;;;20.93;;
77384;SDS011;66443;49.122;8.346;2024-01-11T13:13:49;63.97;;;32.23;;
77384;SDS011;66443;49.122;8.346;2024-01-11T13:16:14;43.73;;;26.73;;
77384;SDS011;66443;49.122;8.346;2024-01-11T13:18:40;45.73;;;24.77;;
77384;SDS011;66443;49.122;8.346;2024-01-11T13:21:05;52.60;;;26.43;;
77384;SDS011;66443;49.122;8.346;2024-01-11T13:23:34;62.90;;;30.83;;
77384;SDS011;66443;49.122;8.346;2024-01-11T13:25:59;43.80;;;25.45;;
77384;SDS011;66443;49.122;8.346;2024-01-11T13:28:24;41.10;;;24.60;;
77384;SDS011;66443;49.122;8.346;2024-01-11T13:30:51;43.13;;;22.87;;
77384;SDS011;66443;49.122;8.346;2024-01-11T13:33:16;35.27;;;21.10;;
77384;SDS011;66443;49.122;8.346;2024-01-11T13:35:42;54.93;;;24.37;;
77384;SDS011;66443;49.122;8.346;2024-01-11T13:38:08;52.60;;;26.07;;
77384;SDS011;66443;49.122;8.346;2024-01-11T13:40:33;38.70;;;21.97;;
77384;SDS011;66443;49.122;8.346;2024-01-11T13:42:59;46.93;;;24.87;;
77384;SDS011;66443;49.122;8.346;2024-01-11T13:45:25;47.83;;;24.83;;
77384;SDS011;66443;49.122;8.346;2024-01-11T13:47:50;44.43;;;23.57;;
77384;SDS011;66443;49.122;8.346;2024-01-11T13:50:16;43.77;;;23.23;;
77384;SDS011;66443;49.122;8.346;2024-01-11T13:52:41;52.03;;;22.00;;
77384;SDS011;66443;49.122;8.346;2024-01-11T13:55:07;41.13;;;23.40;;
77384;SDS011;66443;49.122;8.346;2024-01-11T13:57:32;37.70;;;22.57;;
77384;SDS011;66443;49.122;8.346;2024-01-11T13:59:58;46.57;;;22.03;;
77384;SDS011;66443;49.122;8.346;2024-01-11T14:02:24;41.23;;;21.87;;
77384;SDS011;66443;49.122;8.346;2024-01-11T14:04:49;46.10;;;22.73;;
77384;SDS011;66443;49.122;8.346;2024-01-11T14:07:14;46.93;;;23.07;;
77384;SDS011;66443;49.122;8.346;2024-01-11T14:09:39;43.67;;;22.00;;
77384;SDS011;66443;49.122;8.346;2024-01-11T14:12:05;73.77;;;30.90;;
77384;SDS011;66443;49.122;8.346;2024-01-11T14:14:30;45.80;;;23.27;;
77384;SDS011;66443;49.122;8.346;2024-01-11T14:16:55;51.00;;;24.13;;
77384;SDS011;66443;49.122;8.346;2024-01-11T14:19:20;47.50;;;22.63;;